sensor_id;sensor_type;location;lat;lon;timestamp;P1;durP1;ratioP1;P2;durP2;ratioP2
58152;SDS011;43967;51.634;5.566;2023-04-29T00:02:29;8.43;;;4.20;;
58152;SDS011;43967;51.634;5.566;2023-04-29T00:07:51;9.88;;;3.85;;
58152;SDS011;43967;51.634;5.566;2023-04-29T00:13:12;9.82;;;3.85;;
58152;SDS011;43967;51.634;5.566;2023-04-29T00:18:33;8.50;;;3.67;;
58152;SDS011;43967;51.634;5.566;2023-04-29T00:23:54;7.70;;;3.37;;
58152;SDS011;43967;51.634;5.566;2023-04-29T00:29:16;8.93;;;3.60;;
58152;SDS011;43967;51.634;5.566;2023-04-29T00:34:37;8.63;;;3.70;;
58152;SDS011;43967;51.634;5.566;2023-04-29T00:39:58;7.87;;;3.10;;
58152;SDS011;43967;51.634;5.566;2023-04-29T00:45:19;8.40;;;3.17;;
58152;SDS011;43967;51.634;5.566;2023-04-29T00:50:41;8.20;;;3.15;;
58152;SDS011;43967;51.634;5.566;2023-04-29T00:56:03;7.90;;;3.20;;
58152;SDS011;43967;51.634;5.566;2023-04-29T01:01:25;8.27;;;3.72;;
58152;SDS011;43967;51.634;5.566;2023-04-29T01:06:54;7.75;;;3.00;;
58152;SDS011;43967;51.634;5.566;2023-04-29T01:18:02;8.03;;;3.67;;
58152;SDS011;43967;51.634;5.566;2023-04-29T01:23:34;8.38;;;4.03;;
58152;SDS011;43967;51.634;5.566;2023-04-29T01:34:56;8.63;;;3.87;;
58152;SDS011;43967;51.634;5.566;2023-04-29T01:40:36;8.98;;;4.50;;
58152;SDS011;43967;51.634;5.566;2023-04-29T01:46:10;8.68;;;3.70;;
58152;SDS011;43967;51.634;5.566;2023-04-29T01:51:36;9.13;;;4.30;;
58152;SDS011;43967;51.634;5.566;2023-04-29T01:56:57;9.40;;;4.20;;
58152;SDS011;43967;51.634;5.566;2023-04-29T02:02:18;9.63;;;4.35;;
58152;SDS011;43967;51.634;5.566;2023-04-29T02:07:41;9.50;;;4.23;;
58152;SDS011;43967;51.634;5.566;2023-04-29T02:13:03;8.83;;;4.20;;
58152;SDS011;43967;51.634;5.566;2023-04-29T02:18:24;9.93;;;4.72;;
58152;SDS011;43967;51.634;5.566;2023-04-29T02:23:45;8.32;;;4.10;;
58152;SDS011;43967;51.634;5.566;2023-04-29T02:29:06;8.33;;;3.80;;
58152;SDS011;43967;51.634;5.566;2023-04-29T02:34:29;8.95;;;4.00;;
58152;SDS011;43967;51.634;5.566;2023-04-29T02:39:51;8.80;;;3.90;;
58152;SDS011;43967;51.634;5.566;2023-04-29T02:45:12;8.80;;;4.07;;
58152;SDS011;43967;51.634;5.566;2023-04-29T02:50:33;9.70;;;4.18;;
58152;SDS011;43967;51.634;5.566;2023-04-29T02:55:54;8.77;;;3.85;;
58152;SDS011;43967;51.634;5.566;2023-04-29T03:01:16;8.50;;;3.80;;
58152;SDS011;43967;51.634;5.566;2023-04-29T03:06:37;8.43;;;3.50;;
58152;SDS011;43967;51.634;5.566;2023-04-29T03:11:58;7.85;;;3.60;;
58152;SDS011;43967;51.634;5.566;2023-04-29T03:17:19;8.40;;;3.53;;
58152;SDS011;43967;51.634;5.566;2023-04-29T03:22:41;8.13;;;3.63;;
58152;SDS011;43967;51.634;5.566;2023-04-29T03:28:02;7.50;;;3.20;;
58152;SDS011;43967;51.634;5.566;2023-04-29T03:33:23;7.78;;;3.30;;
58152;SDS011;43967;51.634;5.566;2023-04-29T03:38:48;7.80;;;3.17;;
58152;SDS011;43967;51.634;5.566;2023-04-29T03:44:10;8.25;;;3.33;;
58152;SDS011;43967;51.634;5.566;2023-04-29T03:49:31;9.25;;;3.75;;
58152;SDS011;43967;51.634;5.566;2023-04-29T03:54:52;7.93;;;3.43;;
58152;SDS011;43967;51.634;5.566;2023-04-29T04:00:14;7.53;;;3.03;;
58152;SDS011;43967;51.634;5.566;2023-04-29T04:05:35;7.53;;;3.17;;
58152;SDS011;43967;51.634;5.566;2023-04-29T04:10:59;8.70;;;3.50;;
58152;SDS011;43967;51.634;5.566;2023-04-29T04:16:21;8.20;;;3.13;;
58152;SDS011;43967;51.634;5.566;2023-04-29T04:21:42;8.63;;;3.28;;
58152;SDS011;43967;51.634;5.566;2023-04-29T04:27:04;7.32;;;3.20;;
58152;SDS011;43967;51.634;5.566;2023-04-29T04:32:26;7.60;;;3.10;;
58152;SDS011;43967;51.634;5.566;2023-04-29T04:37:47;8.20;;;3.10;;
58152;SDS011;43967;51.634;5.566;2023-04-29T04:43:08;7.82;;;3.40;;
58152;SDS011;43967;51.634;5.566;2023-04-29T04:48:31;7.73;;;3.53;;
58152;SDS011;43967;51.634;5.566;2023-04-29T04:53:54;7.80;;;3.67;;
58152;SDS011;43967;51.634;5.566;2023-04-29T04:59:16;7.43;;;3.25;;
58152;SDS011;43967;51.634;5.566;2023-04-29T05:04:37;7.38;;;2.90;;
58152;SDS011;43967;51.634;5.566;2023-04-29T05:10:00;8.93;;;3.23;;
58152;SDS011;43967;51.634;5.566;2023-04-29T05:15:22;7.63;;;3.50;;
58152;SDS011;43967;51.634;5.566;2023-04-29T05:20:44;7.65;;;2.97;;
58152;SDS011;43967;51.634;5.566;2023-04-29T05:26:06;9.43;;;3.80;;
58152;SDS011;43967;51.634;5.566;2023-04-29T05:31:27;7.70;;;3.38;;
58152;SDS011;43967;51.634;5.566;2023-04-29T05:36:48;7.68;;;3.30;;
58152;SDS011;43967;51.634;5.566;2023-04-29T05:42:11;7.43;;;3.10;;
58152;SDS011;43967;51.634;5.566;2023-04-29T05:47:33;7.17;;;3.13;;
58152;SDS011;43967;51.634;5.566;2023-04-29T05:52:54;7.50;;;3.47;;
58152;SDS011;43967;51.634;5.566;2023-04-29T05:58:15;7.18;;;2.92;;
58152;SDS011;43967;51.634;5.566;2023-04-29T06:03:36;7.47;;;3.10;;
58152;SDS011;43967;51.634;5.566;2023-04-29T06:08:58;6.93;;;2.97;;
58152;SDS011;43967;51.634;5.566;2023-04-29T06:14:20;7.10;;;3.00;;
58152;SDS011;43967;51.634;5.566;2023-04-29T06:19:41;6.93;;;3.03;;
58152;SDS011;43967;51.634;5.566;2023-04-29T06:25:03;8.02;;;2.88;;
58152;SDS011;43967;51.634;5.566;2023-04-29T06:30:25;8.27;;;3.08;;
58152;SDS011;43967;51.634;5.566;2023-04-29T06:35:48;8.07;;;3.20;;
58152;SDS011;43967;51.634;5.566;2023-04-29T06:41:09;6.67;;;3.00;;
58152;SDS011;43967;51.634;5.566;2023-04-29T06:46:31;6.88;;;3.00;;
58152;SDS011;43967;51.634;5.566;2023-04-29T06:51:54;7.22;;;2.83;;
58152;SDS011;43967;51.634;5.566;2023-04-29T06:57:16;6.60;;;2.80;;
58152;SDS011;43967;51.634;5.566;2023-04-29T07:02:38;7.53;;;3.40;;
58152;SDS011;43967;51.634;5.566;2023-04-29T07:07:59;7.45;;;3.50;;
58152;SDS011;43967;51.634;5.566;2023-04-29T07:13:20;6.87;;;2.80;;
58152;SDS011;43967;51.634;5.566;2023-04-29T07:18:48;6.55;;;2.53;;
58152;SDS011;43967;51.634;5.566;2023-04-29T07:24:10;6.82;;;2.88;;
58152;SDS011;43967;51.634;5.566;2023-04-29T07:29:31;6.73;;;2.70;;
58152;SDS011;43967;51.634;5.566;2023-04-29T07:34:53;8.97;;;3.03;;
58152;SDS011;43967;51.634;5.566;2023-04-29T07:40:14;6.50;;;2.65;;
58152;SDS011;43967;51.634;5.566;2023-04-29T07:45:35;6.80;;;2.60;;
58152;SDS011;43967;51.634;5.566;2023-04-29T07:50:57;7.27;;;2.70;;
58152;SDS011;43967;51.634;5.566;2023-04-29T07:56:18;7.40;;;3.25;;
58152;SDS011;43967;51.634;5.566;2023-04-29T08:01:39;7.63;;;3.38;;
58152;SDS011;43967;51.634;5.566;2023-04-29T08:07:02;6.87;;;3.10;;
58152;SDS011;43967;51.634;5.566;2023-04-29T08:12:24;6.97;;;3.10;;
58152;SDS011;43967;51.634;5.566;2023-04-29T08:17:45;6.90;;;3.13;;
58152;SDS011;43967;51.634;5.566;2023-04-29T08:23:06;6.43;;;2.73;;
58152;SDS011;43967;51.634;5.566;2023-04-29T08:28:29;7.50;;;3.03;;
58152;SDS011;43967;51.634;5.566;2023-04-29T08:33:51;7.50;;;2.78;;
58152;SDS011;43967;51.634;5.566;2023-04-29T08:39:13;7.13;;;2.97;;
58152;SDS011;43967;51.634;5.566;2023-04-29T08:44:35;7.50;;;2.50;;
58152;SDS011;43967;51.634;5.566;2023-04-29T08:50:00;7.10;;;3.35;;
58152;SDS011;43967;51.634;5.566;2023-04-29T08:55:25;6.72;;;2.67;;
58152;SDS011;43967;51.634;5.566;2023-04-29T09:00:47;6.83;;;2.97;;
58152;SDS011;43967;51.634;5.566;2023-04-29T09:06:09;6.93;;;2.97;;
58152;SDS011;43967;51.634;5.566;2023-04-29T09:11:31;7.75;;;3.40;;
58152;SDS011;43967;51.634;5.566;2023-04-29T09:16:56;7.53;;;2.93;;
58152;SDS011;43967;51.634;5.566;2023-04-29T09:22:17;6.90;;;3.00;;
58152;SDS011;43967;51.634;5.566;2023-04-29T09:27:41;6.68;;;2.83;;
58152;SDS011;43967;51.634;5.566;2023-04-29T09:33:10;6.43;;;2.78;;
58152;SDS011;43967;51.634;5.566;2023-04-29T09:38:32;7.10;;;2.60;;
58152;SDS011;43967;51.634;5.566;2023-04-29T09:44:07;8.45;;;3.33;;
58152;SDS011;43967;51.634;5.566;2023-04-29T09:49:30;6.80;;;2.67;;
58152;SDS011;43967;51.634;5.566;2023-04-29T09:55:03;7.70;;;3.00;;
58152;SDS011;43967;51.634;5.566;2023-04-29T10:00:25;7.70;;;3.00;;
58152;SDS011;43967;51.634;5.566;2023-04-29T10:05:52;6.40;;;2.78;;
58152;SDS011;43967;51.634;5.566;2023-04-29T10:11:13;7.30;;;3.20;;
58152;SDS011;43967;51.634;5.566;2023-04-29T10:16:43;7.17;;;3.00;;
58152;SDS011;43967;51.634;5.566;2023-04-29T10:22:11;6.70;;;2.88;;
58152;SDS011;43967;51.634;5.566;2023-04-29T10:27:41;6.55;;;2.72;;
58152;SDS011;43967;51.634;5.566;2023-04-29T10:33:03;6.63;;;2.60;;
58152;SDS011;43967;51.634;5.566;2023-04-29T10:38:34;6.88;;;2.72;;
58152;SDS011;43967;51.634;5.566;2023-04-29T10:43:59;6.72;;;2.60;;
58152;SDS011;43967;51.634;5.566;2023-04-29T10:49:20;6.60;;;2.87;;
58152;SDS011;43967;51.634;5.566;2023-04-29T10:54:41;7.57;;;2.90;;
58152;SDS011;43967;51.634;5.566;2023-04-29T11:00:25;7.28;;;2.85;;
58152;SDS011;43967;51.634;5.566;2023-04-29T11:06:02;7.03;;;2.80;;
58152;SDS011;43967;51.634;5.566;2023-04-29T11:11:41;6.77;;;2.87;;
58152;SDS011;43967;51.634;5.566;2023-04-29T11:17:15;7.22;;;2.90;;
58152;SDS011;43967;51.634;5.566;2023-04-29T11:22:37;6.55;;;2.78;;
58152;SDS011;43967;51.634;5.566;2023-04-29T11:27:59;8.23;;;3.13;;
58152;SDS011;43967;51.634;5.566;2023-04-29T11:33:20;6.20;;;2.55;;
58152;SDS011;43967;51.634;5.566;2023-04-29T11:38:42;6.40;;;2.70;;
58152;SDS011;43967;51.634;5.566;2023-04-29T11:44:03;7.07;;;2.80;;
58152;SDS011;43967;51.634;5.566;2023-04-29T11:49:28;6.22;;;2.58;;
58152;SDS011;43967;51.634;5.566;2023-04-29T11:54:50;6.43;;;2.50;;
58152;SDS011;43967;51.634;5.566;2023-04-29T12:00:12;6.23;;;2.80;;
58152;SDS011;43967;51.634;5.566;2023-04-29T12:05:33;7.80;;;3.33;;
58152;SDS011;43967;51.634;5.566;2023-04-29T12:10:55;6.65;;;2.42;;
58152;SDS011;43967;51.634;5.566;2023-04-29T12:16:17;7.10;;;3.15;;
58152;SDS011;43967;51.634;5.566;2023-04-29T12:21:46;7.43;;;2.97;;
58152;SDS011;43967;51.634;5.566;2023-04-29T12:27:09;5.95;;;2.50;;
58152;SDS011;43967;51.634;5.566;2023-04-29T12:32:30;6.43;;;2.50;;
58152;SDS011;43967;51.634;5.566;2023-04-29T12:37:53;6.90;;;2.50;;
58152;SDS011;43967;51.634;5.566;2023-04-29T12:43:14;6.95;;;2.80;;
58152;SDS011;43967;51.634;5.566;2023-04-29T12:48:36;6.35;;;2.30;;
58152;SDS011;43967;51.634;5.566;2023-04-29T12:53:58;6.40;;;2.50;;
58152;SDS011;43967;51.634;5.566;2023-04-29T12:59:23;6.10;;;2.53;;
58152;SDS011;43967;51.634;5.566;2023-04-29T13:04:45;6.80;;;2.70;;
58152;SDS011;43967;51.634;5.566;2023-04-29T13:10:06;6.15;;;2.72;;
58152;SDS011;43967;51.634;5.566;2023-04-29T13:15:28;6.67;;;2.53;;
58152;SDS011;43967;51.634;5.566;2023-04-29T13:20:49;6.25;;;2.60;;
58152;SDS011;43967;51.634;5.566;2023-04-29T13:26:10;6.30;;;2.50;;
58152;SDS011;43967;51.634;5.566;2023-04-29T13:31:31;6.00;;;2.47;;
58152;SDS011;43967;51.634;5.566;2023-04-29T13:36:53;6.10;;;2.42;;
58152;SDS011;43967;51.634;5.566;2023-04-29T13:42:14;6.05;;;2.30;;
58152;SDS011;43967;51.634;5.566;2023-04-29T13:47:35;6.10;;;2.53;;
58152;SDS011;43967;51.634;5.566;2023-04-29T13:52:58;7.43;;;2.60;;
58152;SDS011;43967;51.634;5.566;2023-04-29T13:58:21;5.90;;;2.30;;
58152;SDS011;43967;51.634;5.566;2023-04-29T14:03:42;6.43;;;2.63;;
58152;SDS011;43967;51.634;5.566;2023-04-29T14:09:04;6.40;;;2.27;;
58152;SDS011;43967;51.634;5.566;2023-04-29T14:14:25;6.40;;;2.50;;
58152;SDS011;43967;51.634;5.566;2023-04-29T14:19:48;6.43;;;2.28;;
58152;SDS011;43967;51.634;5.566;2023-04-29T14:25:09;6.43;;;2.10;;
58152;SDS011;43967;51.634;5.566;2023-04-29T14:30:31;6.15;;;2.30;;
58152;SDS011;43967;51.634;5.566;2023-04-29T14:35:52;6.07;;;2.35;;
58152;SDS011;43967;51.634;5.566;2023-04-29T14:41:13;6.17;;;2.40;;
58152;SDS011;43967;51.634;5.566;2023-04-29T14:46:35;5.90;;;2.10;;
58152;SDS011;43967;51.634;5.566;2023-04-29T14:51:56;6.18;;;2.50;;
58152;SDS011;43967;51.634;5.566;2023-04-29T14:57:18;6.00;;;2.20;;
58152;SDS011;43967;51.634;5.566;2023-04-29T15:02:40;5.93;;;2.23;;
58152;SDS011;43967;51.634;5.566;2023-04-29T15:08:01;6.40;;;2.28;;
58152;SDS011;43967;51.634;5.566;2023-04-29T15:13:22;5.90;;;2.40;;
58152;SDS011;43967;51.634;5.566;2023-04-29T15:18:43;6.67;;;2.70;;
58152;SDS011;43967;51.634;5.566;2023-04-29T15:24:05;6.40;;;2.55;;
58152;SDS011;43967;51.634;5.566;2023-04-29T15:29:26;5.93;;;2.20;;
58152;SDS011;43967;51.634;5.566;2023-04-29T15:34:48;5.80;;;2.00;;
58152;SDS011;43967;51.634;5.566;2023-04-29T15:40:09;6.37;;;2.60;;
58152;SDS011;43967;51.634;5.566;2023-04-29T15:45:31;6.00;;;2.17;;
58152;SDS011;43967;51.634;5.566;2023-04-29T15:50:52;5.78;;;2.33;;
58152;SDS011;43967;51.634;5.566;2023-04-29T15:56:13;6.07;;;1.90;;
58152;SDS011;43967;51.634;5.566;2023-04-29T16:01:35;5.93;;;2.67;;
58152;SDS011;43967;51.634;5.566;2023-04-29T16:06:56;5.95;;;2.00;;
58152;SDS011;43967;51.634;5.566;2023-04-29T16:12:18;6.33;;;2.50;;
58152;SDS011;43967;51.634;5.566;2023-04-29T16:17:41;6.18;;;2.30;;
58152;SDS011;43967;51.634;5.566;2023-04-29T16:23:03;5.40;;;2.00;;
58152;SDS011;43967;51.634;5.566;2023-04-29T16:28:27;5.53;;;2.13;;
58152;SDS011;43967;51.634;5.566;2023-04-29T16:33:48;6.17;;;2.37;;
58152;SDS011;43967;51.634;5.566;2023-04-29T16:39:09;5.95;;;2.30;;
58152;SDS011;43967;51.634;5.566;2023-04-29T16:44:32;5.88;;;2.40;;
58152;SDS011;43967;51.634;5.566;2023-04-29T16:49:53;5.27;;;1.77;;
58152;SDS011;43967;51.634;5.566;2023-04-29T16:55:18;5.93;;;2.40;;
58152;SDS011;43967;51.634;5.566;2023-04-29T17:00:39;5.60;;;2.10;;
58152;SDS011;43967;51.634;5.566;2023-04-29T17:06:01;6.20;;;2.40;;
58152;SDS011;43967;51.634;5.566;2023-04-29T17:11:23;6.50;;;2.80;;
58152;SDS011;43967;51.634;5.566;2023-04-29T17:16:44;6.95;;;2.72;;
58152;SDS011;43967;51.634;5.566;2023-04-29T17:22:05;8.50;;;3.07;;
58152;SDS011;43967;51.634;5.566;2023-04-29T17:27:26;9.27;;;2.63;;
58152;SDS011;43967;51.634;5.566;2023-04-29T17:32:48;8.90;;;2.92;;
58152;SDS011;43967;51.634;5.566;2023-04-29T17:38:10;8.20;;;2.85;;
58152;SDS011;43967;51.634;5.566;2023-04-29T17:43:32;9.33;;;2.67;;
58152;SDS011;43967;51.634;5.566;2023-04-29T17:48:53;10.68;;;2.45;;
58152;SDS011;43967;51.634;5.566;2023-04-29T17:54:14;9.00;;;2.70;;
58152;SDS011;43967;51.634;5.566;2023-04-29T17:59:35;8.63;;;3.17;;
58152;SDS011;43967;51.634;5.566;2023-04-29T18:04:57;8.68;;;2.63;;
58152;SDS011;43967;51.634;5.566;2023-04-29T18:10:18;8.52;;;3.00;;
58152;SDS011;43967;51.634;5.566;2023-04-29T18:15:39;8.17;;;2.70;;
58152;SDS011;43967;51.634;5.566;2023-04-29T18:21:01;10.47;;;3.27;;
58152;SDS011;43967;51.634;5.566;2023-04-29T18:26:24;9.88;;;2.78;;
58152;SDS011;43967;51.634;5.566;2023-04-29T18:31:45;11.95;;;3.28;;
58152;SDS011;43967;51.634;5.566;2023-04-29T18:37:07;14.37;;;2.40;;
58152;SDS011;43967;51.634;5.566;2023-04-29T18:42:30;11.07;;;2.92;;
58152;SDS011;43967;51.634;5.566;2023-04-29T18:47:52;13.95;;;3.05;;
58152;SDS011;43967;51.634;5.566;2023-04-29T18:53:13;12.40;;;3.00;;
58152;SDS011;43967;51.634;5.566;2023-04-29T18:58:34;9.02;;;2.50;;
58152;SDS011;43967;51.634;5.566;2023-04-29T19:03:55;11.25;;;2.78;;
58152;SDS011;43967;51.634;5.566;2023-04-29T19:09:17;9.23;;;2.60;;
58152;SDS011;43967;51.634;5.566;2023-04-29T19:14:38;11.13;;;2.40;;
58152;SDS011;43967;51.634;5.566;2023-04-29T19:19:59;9.73;;;2.63;;
58152;SDS011;43967;51.634;5.566;2023-04-29T19:25:23;7.47;;;2.75;;
58152;SDS011;43967;51.634;5.566;2023-04-29T19:30:45;6.97;;;2.40;;
58152;SDS011;43967;51.634;5.566;2023-04-29T19:36:07;9.73;;;2.58;;
58152;SDS011;43967;51.634;5.566;2023-04-29T19:41:28;9.02;;;2.95;;
58152;SDS011;43967;51.634;5.566;2023-04-29T19:46:50;8.27;;;2.50;;
58152;SDS011;43967;51.634;5.566;2023-04-29T19:52:12;8.60;;;2.50;;
58152;SDS011;43967;51.634;5.566;2023-04-29T19:57:34;7.70;;;2.58;;
58152;SDS011;43967;51.634;5.566;2023-04-29T20:02:55;7.87;;;2.73;;
58152;SDS011;43967;51.634;5.566;2023-04-29T20:08:17;7.27;;;2.53;;
58152;SDS011;43967;51.634;5.566;2023-04-29T20:13:39;6.32;;;2.13;;
58152;SDS011;43967;51.634;5.566;2023-04-29T20:19:01;5.90;;;2.10;;
58152;SDS011;43967;51.634;5.566;2023-04-29T20:24:23;7.63;;;2.30;;
58152;SDS011;43967;51.634;5.566;2023-04-29T20:29:46;8.50;;;2.28;;
58152;SDS011;43967;51.634;5.566;2023-04-29T20:35:08;7.18;;;2.53;;
58152;SDS011;43967;51.634;5.566;2023-04-29T20:40:29;9.13;;;2.43;;
58152;SDS011;43967;51.634;5.566;2023-04-29T20:45:50;5.82;;;2.10;;
58152;SDS011;43967;51.634;5.566;2023-04-29T20:51:12;6.82;;;2.47;;
58152;SDS011;43967;51.634;5.566;2023-04-29T20:56:34;6.53;;;2.30;;
58152;SDS011;43967;51.634;5.566;2023-04-29T21:01:55;6.50;;;2.40;;
58152;SDS011;43967;51.634;5.566;2023-04-29T21:07:16;7.22;;;2.20;;
58152;SDS011;43967;51.634;5.566;2023-04-29T21:12:37;8.30;;;2.40;;
58152;SDS011;43967;51.634;5.566;2023-04-29T21:17:59;7.43;;;2.30;;
58152;SDS011;43967;51.634;5.566;2023-04-29T21:23:21;6.20;;;2.40;;
58152;SDS011;43967;51.634;5.566;2023-04-29T21:28:43;8.43;;;2.40;;
58152;SDS011;43967;51.634;5.566;2023-04-29T21:34:05;6.93;;;2.23;;
58152;SDS011;43967;51.634;5.566;2023-04-29T21:39:26;6.60;;;2.40;;
58152;SDS011;43967;51.634;5.566;2023-04-29T21:44:48;6.38;;;2.50;;
58152;SDS011;43967;51.634;5.566;2023-04-29T21:50:10;6.40;;;2.30;;
58152;SDS011;43967;51.634;5.566;2023-04-29T21:55:33;7.87;;;2.40;;
58152;SDS011;43967;51.634;5.566;2023-04-29T22:00:55;6.28;;;2.40;;
58152;SDS011;43967;51.634;5.566;2023-04-29T22:06:16;7.28;;;2.00;;
58152;SDS011;43967;51.634;5.566;2023-04-29T22:11:37;7.73;;;2.40;;
58152;SDS011;43967;51.634;5.566;2023-04-29T22:16:59;6.97;;;2.60;;
58152;SDS011;43967;51.634;5.566;2023-04-29T22:22:21;6.63;;;2.20;;
58152;SDS011;43967;51.634;5.566;2023-04-29T22:27:42;6.10;;;2.43;;
58152;SDS011;43967;51.634;5.566;2023-04-29T22:33:03;9.07;;;2.67;;
58152;SDS011;43967;51.634;5.566;2023-04-29T22:38:26;8.40;;;2.20;;
58152;SDS011;43967;51.634;5.566;2023-04-29T22:43:48;6.17;;;2.10;;
58152;SDS011;43967;51.634;5.566;2023-04-29T22:49:09;6.33;;;2.37;;
58152;SDS011;43967;51.634;5.566;2023-04-29T22:54:31;6.13;;;2.40;;
58152;SDS011;43967;51.634;5.566;2023-04-29T22:59:53;7.53;;;2.28;;
58152;SDS011;43967;51.634;5.566;2023-04-29T23:05:16;6.43;;;2.07;;
58152;SDS011;43967;51.634;5.566;2023-04-29T23:10:39;6.25;;;2.17;;
58152;SDS011;43967;51.634;5.566;2023-04-29T23:16:01;6.53;;;2.05;;
58152;SDS011;43967;51.634;5.566;2023-04-29T23:21:23;6.40;;;2.20;;
58152;SDS011;43967;51.634;5.566;2023-04-29T23:26:44;5.53;;;1.90;;
58152;SDS011;43967;51.634;5.566;2023-04-29T23:32:05;7.32;;;2.28;;
58152;SDS011;43967;51.634;5.566;2023-04-29T23:37:29;6.47;;;2.50;;
58152;SDS011;43967;51.634;5.566;2023-04-29T23:42:51;6.60;;;2.27;;
58152;SDS011;43967;51.634;5.566;2023-04-29T23:48:13;6.95;;;2.58;;
58152;SDS011;43967;51.634;5.566;2023-04-29T23:53:34;7.00;;;2.83;;
58152;SDS011;43967;51.634;5.566;2023-04-29T23:58:55;6.33;;;2.40;;
